Time;durP1;ratioP1;P1;durP2;ratioP2;P2;SDS_P1;SDS_P2;PMS_P1;PMS_P2;Temp;Humidity;BMP_temperature;BMP_pressure;BME280_temperature;BME280_humidity;BME280_pressure;Samples;Min_cycle;Max_cycle;Signal;HPM_P1;HPM_P2
2022/08/06 00:00:16;;;;;;;2.67;1.25;;;;;;;11.87;74.57;102630.56;4788211;29;20044;-77
2022/08/06 00:02:52;;;;;;;2.05;1.30;;;;;;;11.85;75.60;102627.53;4787897;29;20047;-76
2022/08/06 00:05:18;;;;;;;1.42;1.35;;;;;;;11.85;75.61;102627.53;4787647;29;20480;-78
2022/08/06 00:07:57;;;;;;;9.02;1.70;;;;;;;11.82;75.92;102632.94;4787379;29;20044;-76
2022/08/06 00:10:27;;;;;;;2.58;1.42;;;;;;;11.82;75.97;102624.94;4787783;29;20097;-76
2022/08/06 00:12:56;;;;;;;4.70;1.80;;;;;;;11.80;75.76;102635.25;4787415;29;20489;-76
2022/08/06 00:15:24;;;;;;;1.92;1.45;;;;;;;11.75;76.16;102639.06;4787222;29;20572;-76
2022/08/06 00:18:10;;;;;;;5.78;1.77;;;;;;;11.72;76.92;102636.47;4787459;29;20105;-76
2022/08/06 00:20:38;;;;;;;3.50;1.50;;;;;;;11.70;76.56;102640.28;4787479;29;20105;-76
2022/08/06 00:23:08;;;;;;;3.10;1.55;;;;;;;11.69;76.79;102638.00;4770716;29;20066;-76
2022/08/06 00:25:44;;;;;;;1.50;1.40;;;;;;;11.69;76.77;102636.09;4787507;29;20051;-76
2022/08/06 00:28:22;;;;;;;4.03;1.58;;;;;;;11.68;77.27;102639.16;4787754;29;20148;-76
2022/08/06 00:30:57;;;;;;;3.10;1.63;;;;;;;11.67;77.59;102640.31;4787568;29;20504;-76
2022/08/06 00:33:26;;;;;;;4.53;1.60;;;;;;;11.66;78.19;102646.81;4787391;29;20117;-76
2022/08/06 00:36:12;;;;;;;6.38;1.98;;;;;;;11.66;79.16;102647.56;4787072;29;20056;-76
2022/08/06 00:38:39;;;;;;;5.68;2.15;;;;;;;11.64;79.26;102649.88;4787199;29;20105;-75
2022/08/06 00:41:06;;;;;;;3.70;1.50;;;;;;;11.64;79.21;102649.13;4770775;29;20056;-75
2022/08/06 00:43:33;;;;;;;5.43;1.95;;;;;;;11.63;80.18;102645.69;4756179;29;20098;-75
2022/08/06 00:46:06;;;;;;;2.50;1.73;;;;;;;11.62;79.77;102654.84;4787059;29;20497;-75
2022/08/06 00:48:42;;;;;;;5.90;1.98;;;;;;;11.60;80.23;102643.06;4787155;29;20115;-75
2022/08/06 00:51:21;;;;;;;6.53;2.03;;;;;;;11.60;80.05;102654.50;4786915;29;20055;-74
2022/08/06 00:53:49;;;;;;;3.00;1.58;;;;;;;11.57;80.39;102652.66;4787228;29;20051;-74
2022/08/06 00:56:23;;;;;;;2.50;2.00;;;;;;;11.57;80.13;102666.00;4787099;29;20135;-76
2022/08/06 00:58:54;;;;;;;5.90;1.88;;;;;;;11.57;79.51;102659.91;4787057;29;20055;-76
2022/08/06 01:01:29;;;;;;;6.20;2.05;;;;;;;11.54;79.61;102664.13;4787065;29;20048;-76
2022/08/06 01:03:58;;;;;;;5.22;2.00;;;;;;;11.50;79.85;102668.75;4786437;29;20075;-76
2022/08/06 01:06:25;;;;;;;1.83;1.35;;;;;;;11.48;80.45;102664.97;4786408;29;20109;-75
2022/08/06 01:09:11;;;;;;;5.93;1.70;;;;;;;11.51;80.03;102670.25;4770577;29;20143;-76
2022/08/06 01:11:40;;;;;;;6.20;2.03;;;;;;;11.48;81.31;102671.06;4786612;29;20050;-76
2022/08/06 01:14:07;;;;;;;3.50;1.83;;;;;;;11.46;80.69;102678.69;4786765;29;20059;-75
2022/08/06 01:16:38;;;;;;;4.07;1.90;;;;;;;11.44;81.55;102670.34;4785569;29;20059;-76
2022/08/06 01:19:25;;;;;;;9.02;2.17;;;;;;;11.42;80.72;102685.97;4769758;29;20052;-75
2022/08/06 01:22:30;;;;;;;4.18;1.50;;;;;;;11.41;81.24;102679.13;4786890;29;20056;-75
2022/08/06 01:25:32;;;;;;;2.67;1.65;;;;;;;11.39;80.70;102678.75;4791391;29;20055;-75
2022/08/06 01:28:13;;;;;;;2.67;1.50;;;;;;;11.38;81.72;102687.16;4801816;29;20142;-75
2022/08/06 01:30:47;;;;;;;8.13;1.90;;;;;;;11.35;81.75;102694.81;4803407;29;20513;-76
2022/08/06 01:33:25;;;;;;;4.05;1.60;;;;;;;11.33;82.30;102691.00;4804024;29;20475;-75
2022/08/06 01:36:01;;;;;;;8.27;1.85;;;;;;;11.33;82.33;102691.00;4803130;29;20126;-75
2022/08/06 01:38:34;;;;;;;6.05;2.10;;;;;;;11.31;82.41;102691.41;4804580;29;20113;-76
2022/08/06 01:41:05;;;;;;;6.05;1.80;;;;;;;11.31;82.62;102688.00;4788107;29;20130;-75
2022/08/06 01:43:33;;;;;;;2.58;1.52;;;;;;;11.30;82.27;102687.22;4804464;29;20536;-75
2022/08/06 01:46:20;;;;;;;2.60;1.85;;;;;;;11.28;83.24;102700.19;4804814;29;20055;-75
2022/08/06 01:48:50;;;;;;;3.55;1.90;;;;;;;11.26;83.21;102699.84;4804082;29;20044;-75
2022/08/06 01:51:17;;;;;;;2.08;1.42;;;;;;;11.26;82.97;102702.50;4804713;29;20047;-75
2022/08/06 01:54:07;;;;;;;7.63;2.20;;;;;;;11.26;82.26;102694.50;4804289;29;20138;-75
2022/08/06 01:56:40;;;;;;;3.20;1.77;;;;;;;11.24;82.10;102690.72;4804370;29;20578;-76
2022/08/06 01:59:29;;;;;;;4.00;1.75;;;;;;;11.21;82.87;102707.50;4804371;29;20055;-74
2022/08/06 02:01:57;;;;;;;4.57;1.90;;;;;;;11.21;82.96;102696.84;4804235;29;20126;-74
2022/08/06 02:04:28;;;;;;;5.68;1.65;;;;;;;11.19;82.83;102702.59;4803476;29;20062;-75
2022/08/06 02:06:58;;;;;;;4.93;1.77;;;;;;;11.17;83.62;102704.16;4804225;29;20130;-75
2022/08/06 02:09:26;;;;;;;2.20;1.80;;;;;;;11.16;83.17;102708.72;4803903;29;20517;-75
2022/08/06 02:12:10;;;;;;;2.22;1.60;;;;;;;11.17;83.13;102704.16;4804128;29;20058;-75
2022/08/06 02:14:53;;;;;;;5.25;2.03;;;;;;;11.16;83.39;102706.06;4786993;29;20664;-74
2022/08/06 02:17:26;;;;;;;3.53;2.00;;;;;;;11.16;83.93;102711.38;4787623;29;20537;-75
2022/08/06 02:20:16;;;;;;;4.30;2.33;;;;;;;11.16;84.17;102714.06;4804172;29;20071;-75
2022/08/06 02:23:09;;;;;;;2.85;2.15;;;;;;;11.14;83.51;102708.34;4787238;29;20451;-75
2022/08/06 02:25:40;;;;;;;3.55;2.00;;;;;;;11.11;84.10;102708.38;4804084;29;20059;-75
2022/08/06 02:28:09;;;;;;;6.20;2.13;;;;;;;11.08;84.10;102707.25;4772921;29;20146;-75
2022/08/06 02:30:40;;;;;;;6.28;1.90;;;;;;;11.05;83.98;102705.38;4805487;29;20497;-74
2022/08/06 02:33:10;;;;;;;6.03;1.80;;;;;;;11.06;83.87;102714.16;4807074;29;20059;-75
2022/08/06 02:36:07;;;;;;;3.70;1.90;;;;;;;11.05;83.56;102708.06;4807008;29;20052;-75
2022/08/06 02:39:02;;;;;;;5.28;2.00;;;;;;;11.02;83.63;102704.28;4807272;29;20424;-75
2022/08/06 02:41:42;;;;;;;5.70;2.33;;;;;;;11.00;83.54;102711.13;4805182;29;20055;-76
2022/08/06 02:44:43;;;;;;;5.00;2.38;;;;;;;10.97;83.50;102712.69;4807313;29;20055;-76
2022/08/06 02:47:16;;;;;;;5.35;2.05;;;;;;;10.92;83.06;102707.78;4806818;29;20051;-76
2022/08/06 02:49:50;;;;;;;3.25;1.75;;;;;;;10.92;84.02;102712.34;4807215;29;20144;-75
2022/08/06 02:52:35;;;;;;;5.50;1.83;;;;;;;10.91;84.50;102710.84;4805742;29;20051;-75
2022/08/06 02:55:16;;;;;;;3.58;2.58;;;;;;;10.90;84.05;102711.97;4807223;29;20056;-75
2022/08/06 02:57:52;;;;;;;4.18;2.08;;;;;;;10.90;84.40;102712.75;4790320;29;20055;-74
2022/08/06 03:00:25;;;;;;;6.35;2.10;;;;;;;10.91;84.94;102705.50;4806778;29;20394;-77
2022/08/06 03:02:59;;;;;;;3.20;1.80;;;;;;;10.90;84.45;102707.41;4806009;29;20947;-76
2022/08/06 03:05:28;;;;;;;3.75;1.70;;;;;;;10.84;85.57;102711.66;4806717;29;20521;-77
2022/08/06 03:08:20;;;;;;;5.22;2.05;;;;;;;10.80;84.73;102716.25;4806928;29;20054;-77
2022/08/06 03:10:54;;;;;;;5.97;1.77;;;;;;;10.81;85.41;102714.34;4790237;29;20059;-76
2022/08/06 03:13:22;;;;;;;4.88;1.95;;;;;;;10.79;85.30;102717.41;4789893;29;20583;-76
2022/08/06 03:15:59;;;;;;;2.20;1.75;;;;;;;10.78;85.25;102712.47;4805773;29;20221;-76
2022/08/06 03:18:29;;;;;;;3.53;1.50;;;;;;;10.76;84.74;102709.47;4806678;29;20055;-76
2022/08/06 03:20:57;;;;;;;2.05;1.92;;;;;;;10.75;84.30;102711.34;4790243;29;20058;-77
2022/08/06 03:23:24;;;;;;;2.63;1.65;;;;;;;10.73;84.49;102713.66;4806312;29;20532;-77
2022/08/06 03:25:54;;;;;;;2.78;1.77;;;;;;;10.71;84.22;102715.94;4806106;29;20072;-77
2022/08/06 03:28:21;;;;;;;2.10;1.75;;;;;;;10.69;83.79;102724.34;4806222;29;20894;-75
2022/08/06 03:30:49;;;;;;;2.60;1.88;;;;;;;10.67;84.27;102725.88;4806119;29;20502;-75
2022/08/06 03:33:22;;;;;;;1.95;1.77;;;;;;;10.65;84.24;102728.16;4775677;29;20151;-75
2022/08/06 03:36:09;;;;;;;3.92;1.60;;;;;;;10.65;84.91;102734.25;4806247;29;20100;-76
2022/08/06 03:38:46;;;;;;;2.35;1.80;;;;;;;10.66;84.55;102735.00;4804534;29;20066;-74
2022/08/06 03:41:20;;;;;;;6.80;1.55;;;;;;;10.62;85.23;102731.63;4804913;29;20058;-74
2022/08/06 03:43:54;;;;;;;2.42;1.60;;;;;;;10.60;85.48;102736.56;4804591;29;20083;-75
2022/08/06 03:46:55;;;;;;;5.63;1.85;;;;;;;10.59;85.13;102737.72;4805770;29;20060;-75
2022/08/06 03:49:30;;;;;;;1.77;1.48;;;;;;;10.57;85.67;102737.34;4806357;29;20054;-76
2022/08/06 03:52:10;;;;;;;2.08;1.60;;;;;;;10.54;85.83;102738.13;4806271;29;20043;-76
2022/08/06 03:54:54;;;;;;;3.95;1.85;;;;;;;10.54;85.82;102738.88;4805636;29;20132;-75
2022/08/06 03:57:25;;;;;;;2.33;1.60;;;;;;;10.52;85.15;102735.84;4806085;29;20063;-75
2022/08/06 04:00:12;;;;;;;3.88;1.60;;;;;;;10.51;85.51;102742.34;4805630;29;20048;-75
2022/08/06 04:02:44;;;;;;;1.60;1.45;;;;;;;10.50;85.22;102743.47;4805840;29;20079;-75
2022/08/06 04:05:19;;;;;;;5.05;1.55;;;;;;;10.48;84.90;102742.34;4805573;29;20552;-75
2022/08/06 04:07:53;;;;;;;2.25;1.45;;;;;;;10.47;85.00;102754.16;4804840;29;20051;-75
2022/08/06 04:10:29;;;;;;;1.80;1.40;;;;;;;10.44;85.13;102746.94;4805668;29;20062;-76
2022/08/06 04:13:02;;;;;;;2.22;2.00;;;;;;;10.46;86.17;102748.06;4805362;29;20047;-75
2022/08/06 04:15:52;;;;;;;5.43;1.80;;;;;;;10.47;86.39;102754.16;4791740;29;20498;-75
2022/08/06 04:18:28;;;;;;;3.25;1.60;;;;;;;10.48;86.13;102761.75;4805433;29;20418;-75
2022/08/06 04:21:00;;;;;;;3.80;1.52;;;;;;;10.49;86.04;102755.28;4805492;29;20633;-75
2022/08/06 04:23:47;;;;;;;2.03;1.50;;;;;;;10.51;86.01;102755.66;4806000;29;20083;-75
2022/08/06 04:26:17;;;;;;;1.70;1.60;;;;;;;10.53;86.03;102763.25;4805240;29;20142;-75
2022/08/06 04:28:47;;;;;;;2.45;1.83;;;;;;;10.53;87.12;102769.34;4805004;29;20047;-75
2022/08/06 04:31:27;;;;;;;1.92;1.65;;;;;;;10.51;86.78;102766.28;4805438;29;20104;-75
2022/08/06 04:34:20;;;;;;;1.30;1.20;;;;;;;10.54;86.61;102762.09;4791953;29;20062;-75
2022/08/06 04:36:53;;;;;;;3.45;1.50;;;;;;;10.56;86.62;102760.56;4805620;29;20086;-75
2022/08/06 04:39:22;;;;;;;2.80;1.50;;;;;;;10.58;87.27;102757.50;4803875;29;20059;-76
2022/08/06 04:42:03;;;;;;;4.05;1.70;;;;;;;10.59;86.68;102764.34;4805416;29;20061;-75
2022/08/06 04:44:31;;;;;;;1.83;1.35;;;;;;;10.58;86.50;102765.50;4805223;29;20533;-75
2022/08/06 04:46:58;;;;;;;1.70;1.60;;;;;;;10.61;86.53;102764.72;4804833;29;20051;-75
2022/08/06 04:49:25;;;;;;;4.00;1.80;;;;;;;10.63;86.69;102771.19;4804924;29;20085;-76
2022/08/06 04:52:22;;;;;;;1.45;1.42;;;;;;;10.68;86.50;102767.34;4804314;29;20044;-76
2022/08/06 04:55:09;;;;;;;3.22;1.58;;;;;;;10.73;87.16;102771.50;4791536;29;20607;-76
2022/08/06 04:57:55;;;;;;;4.30;1.90;;;;;;;10.75;87.00;102779.88;4804681;29;20067;-76
2022/08/06 05:00:42;;;;;;;5.03;1.92;;;;;;;10.80;86.39;102784.75;4805075;29;20057;-75
2022/08/06 05:03:29;;;;;;;1.33;1.20;;;;;;;10.86;86.85;102783.19;4804777;29;20494;-75
2022/08/06 05:06:36;;;;;;;5.15;1.35;;;;;;;11.46;87.53;102790.69;4805337;29;20055;-76
2022/08/06 05:09:11;;;;;;;4.82;1.65;;;;;;;14.42;78.10;102793.00;4804982;29;20134;-75
2022/08/06 05:12:18;;;;;;;2.90;1.40;;;;;;;17.50;68.12;102798.91;4804578;29;20052;-76
2022/08/06 05:15:06;;;;;;;4.13;1.58;;;;;;;19.07;60.54;102803.78;4780020;29;20097;-76
2022/08/06 05:17:39;;;;;;;4.53;1.30;;;;;;;19.81;55.09;102797.13;4804613;29;20498;-76
2022/08/06 05:20:20;;;;;;;4.47;1.52;;;;;;;21.10;51.85;102814.97;4804571;29;20055;-76
2022/08/06 05:23:06;;;;;;;1.65;1.10;;;;;;;22.10;49.43;102812.53;4804834;29;20055;-76
2022/08/06 05:25:45;;;;;;;5.93;1.40;;;;;;;22.66;46.15;102805.16;4804329;29;20060;-76
2022/08/06 05:28:20;;;;;;;3.42;1.45;;;;;;;23.31;44.36;102814.56;4804957;29;20052;-76
2022/08/06 05:30:51;;;;;;;2.53;1.77;;;;;;;23.82;43.17;102821.22;4804399;29;20051;-76
2022/08/06 05:33:28;;;;;;;2.95;1.20;;;;;;;24.19;43.58;102821.97;4804699;29;20502;-76
2022/08/06 05:35:57;;;;;;;6.00;1.38;;;;;;;24.27;41.80;102816.84;4787938;29;20067;-76
2022/08/06 05:38:32;;;;;;;3.05;1.25;;;;;;;24.56;41.75;102824.69;4789175;29;20163;-76
2022/08/06 05:41:03;;;;;;;1.80;1.40;;;;;;;24.66;41.29;102824.47;4804044;29;20051;-76
2022/08/06 05:43:32;;;;;;;1.50;1.20;;;;;;;24.93;40.96;102830.00;4803436;29;20051;-76
2022/08/06 05:46:21;;;;;;;3.33;1.42;;;;;;;25.02;40.38;102831.06;4804367;29;20601;-76
2022/08/06 05:49:02;;;;;;;4.05;1.38;;;;;;;24.98;41.02;102836.00;4773471;29;20058;-77
2022/08/06 05:51:57;;;;;;;2.97;1.40;;;;;;;25.06;40.79;102831.56;4804646;29;20494;-75
2022/08/06 05:54:48;;;;;;;2.05;1.60;;;;;;;25.27;40.94;102835.56;4788161;29;20051;-75
2022/08/06 05:57:16;;;;;;;4.63;1.20;;;;;;;25.00;40.66;102844.44;4804524;29;20116;-74
2022/08/06 06:00:08;;;;;;;1.88;1.00;;;;;;;24.97;40.80;102839.97;4804131;29;20062;-75
2022/08/06 06:02:39;;;;;;;1.17;0.93;;;;;;;24.81;41.18;102847.53;4801941;29;20051;-74
2022/08/06 06:05:08;;;;;;;2.55;1.02;;;;;;;24.63;41.60;102847.97;4804212;29;20122;-74
2022/08/06 06:07:55;;;;;;;2.70;1.27;;;;;;;24.28;42.99;102848.28;4804143;29;20053;-75
2022/08/06 06:10:41;;;;;;;2.20;1.20;;;;;;;23.99;42.89;102849.31;4803838;29;20050;-75
2022/08/06 06:13:21;;;;;;;1.40;1.15;;;;;;;23.46;44.87;102847.81;4787758;29;20535;-75
2022/08/06 06:16:14;;;;;;;6.25;1.52;;;;;;;23.07;45.07;102857.53;4803698;29;20098;-76
2022/08/06 06:19:14;;;;;;;1.15;0.93;;;;;;;22.81;46.54;102862.88;4804143;29;20064;-75
2022/08/06 06:22:01;;;;;;;6.13;1.30;;;;;;;22.60;47.35;102856.66;4804122;29;20047;-75
2022/08/06 06:24:50;;;;;;;1.25;1.00;;;;;;;22.33;48.31;102857.78;4801990;29;20512;-75
2022/08/06 06:27:21;;;;;;;1.67;1.00;;;;;;;21.89;48.75;102863.22;4802682;29;20063;-76
2022/08/06 06:30:15;;;;;;;4.28;1.23;;;;;;;21.70;48.87;102867.31;4803675;29;20549;-76
2022/08/06 06:33:21;;;;;;;1.30;0.98;;;;;;;21.13;50.74;102867.47;4787184;29;20140;-76
2022/08/06 06:36:46;;;;;;;2.53;1.08;;;;;;;20.93;51.41;102873.44;4803615;29;20055;-75
2022/08/06 06:39:25;;;;;;;2.05;0.93;;;;;;;20.91;52.20;102868.50;4803521;29;20058;-76
2022/08/06 06:42:06;;;;;;;1.25;0.70;;;;;;;20.94;50.97;102867.56;4802417;29;20064;-76
2022/08/06 06:44:57;;;;;;;1.33;0.90;;;;;;;21.00;51.87;102864.97;4803780;29;20537;-76
2022/08/06 06:48:02;;;;;;;4.15;1.23;;;;;;;20.88;52.97;102874.81;4803242;29;20059;-74
2022/08/06 06:50:34;;;;;;;3.00;1.30;;;;;;;20.83;50.28;102874.69;4786864;29;20520;-77
2022/08/06 06:53:03;;;;;;;1.98;0.90;;;;;;;20.64;50.23;102868.66;4802994;29;20051;-80
2022/08/06 06:55:40;;;;;;;1.73;1.00;;;;;;;20.68;50.26;102869.25;4803401;29;20055;-77
2022/08/06 06:58:40;;;;;;;4.53;0.80;;;;;;;20.61;49.66;102864.16;4803608;29;20052;-80
2022/08/06 07:01:14;;;;;;;2.03;0.90;;;;;;;20.60;48.90;102868.06;4787916;29;20183;-77
2022/08/06 07:03:56;;;;;;;1.02;0.80;;;;;;;20.57;48.55;102869.72;4803342;29;20085;-77
2022/08/06 07:06:25;;;;;;;2.35;0.82;;;;;;;20.46;49.04;102868.72;4802898;29;20138;-76
2022/08/06 07:09:14;;;;;;;4.78;0.90;;;;;;;20.57;49.28;102871.69;4802787;29;20344;-78
2022/08/06 07:12:02;;;;;;;1.80;0.85;;;;;;;20.51;48.66;102866.16;4802985;29;20075;-77
2022/08/06 07:14:34;;;;;;;1.08;0.70;;;;;;;20.55;48.77;102872.16;4802859;29;21011;-77
2022/08/06 07:17:04;;;;;;;2.20;0.80;;;;;;;20.59;48.98;102874.69;4806368;29;20205;-78
2022/08/06 07:19:57;;;;;;;1.40;0.63;;;;;;;20.58;49.07;102875.91;4806001;29;20051;-78
2022/08/06 07:22:26;;;;;;;2.78;0.80;;;;;;;20.50;48.48;102880.13;4805704;29;20047;-77
2022/08/06 07:25:00;;;;;;;4.00;0.90;;;;;;;20.58;48.46;102878.59;4806342;29;20054;-78
2022/08/06 07:27:32;;;;;;;0.80;0.68;;;;;;;20.59;48.31;102877.41;4805813;29;20506;-76
2022/08/06 07:30:10;;;;;;;1.23;0.85;;;;;;;20.80;48.03;102887.19;4806102;29;20526;-77
2022/08/06 07:32:37;;;;;;;1.58;0.85;;;;;;;20.95;47.21;102896.16;4805957;29;20131;-78
2022/08/06 07:35:06;;;;;;;3.80;0.90;;;;;;;21.09;47.58;102888.56;4804455;29;20051;-77
2022/08/06 07:37:56;;;;;;;3.40;1.08;;;;;;;21.27;47.93;102889.19;4805417;29;20052;-77
2022/08/06 07:40:31;;;;;;;2.17;0.90;;;;;;;21.48;47.29;102887.38;4806202;29;20055;-78
2022/08/06 07:43:08;;;;;;;1.60;0.75;;;;;;;21.64;47.83;102892.34;4806119;29;20126;-76
2022/08/06 07:45:50;;;;;;;3.60;0.97;;;;;;;21.42;47.07;102889.22;4806130;29;20055;-76
2022/08/06 07:48:27;;;;;;;3.03;0.80;;;;;;;21.70;45.66;102889.00;4805881;29;20055;-77
2022/08/06 07:50:59;;;;;;;2.13;1.13;;;;;;;21.88;46.13;102895.00;4805658;29;20058;-75
2022/08/06 07:53:26;;;;;;;1.90;0.82;;;;;;;21.77;45.13;102897.50;4804331;29;20060;-75
2022/08/06 07:56:15;;;;;;;4.65;0.90;;;;;;;21.52;46.09;102893.38;4789244;29;20062;-75
2022/08/06 07:58:42;;;;;;;2.97;0.90;;;;;;;21.83;45.52;102898.34;4805555;29;20051;-77
2022/08/06 08:01:12;;;;;;;3.83;0.90;;;;;;;22.03;45.01;102896.97;4805479;29;20057;-76
2022/08/06 08:06:52;;;;;;;1.75;1.00;;;;;;;22.33;43.40;102908.56;4804688;29;20521;-79
2022/08/06 08:09:22;;;;;;;1.80;0.60;;;;;;;22.62;44.64;102903.81;4789297;29;20051;-78
2022/08/06 08:11:56;;;;;;;2.95;1.00;;;;;;;22.89;43.41;102904.69;4774892;29;20055;-78
2022/08/06 08:14:44;;;;;;;1.00;0.90;;;;;;;22.95;43.21;102902.81;4803718;29;20147;-78
2022/08/06 08:17:15;;;;;;;1.65;0.80;;;;;;;22.52;43.67;102904.41;4805514;29;20113;-79
2022/08/06 08:20:10;;;;;;;1.77;0.77;;;;;;;21.89;44.44;102912.00;4805058;29;20486;-77
2022/08/06 08:22:46;;;;;;;1.20;0.80;;;;;;;22.29;44.75;102901.38;4805624;29;20054;-78
2022/08/06 08:25:16;;;;;;;1.98;1.00;;;;;;;22.60;44.46;102908.97;4805479;29;20548;-78
2022/08/06 08:28:04;;;;;;;2.50;0.90;;;;;;;22.78;43.29;102913.47;4805583;29;20210;-77
2022/08/06 08:30:41;;;;;;;1.65;0.90;;;;;;;22.89;42.27;102913.59;4805257;29;20132;-77
2022/08/06 08:33:08;;;;;;;1.85;0.80;;;;;;;22.29;43.21;102914.19;4805122;29;20056;-77
2022/08/06 08:35:44;;;;;;;3.63;0.90;;;;;;;21.63;43.73;102917.94;4774379;29;20056;-77
2022/08/06 08:38:35;;;;;;;1.85;0.90;;;;;;;21.22;45.07;102918.88;4805214;29;20519;-77
2022/08/06 08:41:11;;;;;;;2.22;0.90;;;;;;;20.91;45.60;102924.59;4805193;29;20054;-77
2022/08/06 08:43:44;;;;;;;1.20;0.90;;;;;;;20.67;46.32;102924.56;4788986;29;20053;-78
2022/08/06 08:46:33;;;;;;;3.47;0.88;;;;;;;21.35;44.99;102913.97;4788210;29;20059;-76
2022/08/06 08:49:18;;;;;;;1.17;0.90;;;;;;;21.94;44.01;102917.53;4804506;29;20525;-76
2022/08/06 08:51:46;;;;;;;1.30;0.82;;;;;;;22.20;44.19;102912.31;4805172;29;20059;-76
2022/08/06 08:54:22;;;;;;;2.80;0.90;;;;;;;22.46;42.54;102907.03;4803749;29;20051;-77
2022/08/06 08:56:51;;;;;;;1.30;0.90;;;;;;;22.47;40.01;102908.53;4803691;29;20094;-77
2022/08/06 08:59:40;;;;;;;3.33;0.90;;;;;;;22.72;40.22;102914.56;4805096;29;20071;-77
2022/08/06 09:02:27;;;;;;;1.80;0.68;;;;;;;22.93;39.54;102914.16;4805112;29;20047;-77
2022/08/06 09:04:56;;;;;;;1.10;0.80;;;;;;;23.09;37.83;102914.84;4802775;29;20079;-76
2022/08/06 09:07:26;;;;;;;0.63;0.60;;;;;;;23.21;37.69;102906.34;4804161;29;20509;-78
2022/08/06 09:10:09;;;;;;;0.98;0.70;;;;;;;23.40;40.01;102914.97;4804964;29;20535;-77
2022/08/06 09:12:38;;;;;;;1.23;0.82;;;;;;;23.43;39.76;102914.00;4788210;29;20055;-78
2022/08/06 09:15:14;;;;;;;0.85;0.70;;;;;;;23.56;37.61;102917.16;4804176;29;20575;-79
2022/08/06 09:17:47;;;;;;;3.90;1.00;;;;;;;23.52;37.75;102924.72;4804065;29;20051;-78
2022/08/06 09:20:35;;;;;;;2.35;0.80;;;;;;;22.88;37.88;102916.78;4804783;29;20051;-79
2022/08/06 09:23:02;;;;;;;0.68;0.60;;;;;;;22.31;39.30;102924.56;4804383;29;20059;-80
2022/08/06 09:25:45;;;;;;;1.05;0.75;;;;;;;22.64;40.51;102930.50;4804367;29;20094;-79
2022/08/06 09:28:29;;;;;;;1.65;1.02;;;;;;;23.04;39.92;102920.94;4804514;29;20086;-79
2022/08/06 09:31:06;;;;;;;3.10;0.80;;;;;;;23.28;39.53;102926.91;4804429;29;20523;-78
2022/08/06 09:33:59;;;;;;;1.20;0.90;;;;;;;23.73;39.26;102920.00;4802682;29;20063;-77
2022/08/06 09:36:48;;;;;;;1.42;0.70;;;;;;;24.04;38.17;102926.72;4787881;29;20051;-78
2022/08/06 09:39:40;;;;;;;0.85;0.80;;;;;;;23.61;37.57;102923.84;4803897;29;20051;-78
2022/08/06 09:42:43;;;;;;;0.70;0.65;;;;;;;22.52;38.82;102924.16;4803124;29;20126;-77
2022/08/06 09:45:12;;;;;;;2.05;0.80;;;;;;;22.09;39.05;102931.13;4804245;29;20039;-78
2022/08/06 09:47:44;;;;;;;1.90;0.63;;;;;;;21.91;40.85;102931.28;4803703;29;20048;-75
2022/08/06 09:50:41;;;;;;;1.75;0.73;;;;;;;22.62;40.14;102925.53;4804438;29;20051;-76
2022/08/06 09:53:10;;;;;;;1.73;0.65;;;;;;;23.15;39.23;102926.53;4803775;29;20116;-76
2022/08/06 09:55:40;;;;;;;1.40;0.70;;;;;;;23.45;38.83;102917.00;4804035;29;20056;-77
2022/08/06 09:58:07;;;;;;;0.68;0.60;;;;;;;23.67;38.23;102919.22;4802393;29;20555;-76
2022/08/06 10:00:37;;;;;;;1.65;1.00;;;;;;;23.39;38.46;102920.88;4803537;29;20097;-78
2022/08/06 10:03:07;;;;;;;;;;;;;;;23.83;39.79;102926.06;4804245;29;20060;-77
2022/08/06 10:06:10;;;;;;;6.40;1.00;;;;;;;24.12;36.58;102920.38;4803927;29;19929;-76
2022/08/06 10:08:41;;;;;;;0.73;0.68;;;;;;;24.03;33.75;102923.25;4803943;29;20236;-76
2022/08/06 10:11:08;;;;;;;4.90;0.50;;;;;;;24.17;33.88;102918.91;4787771;29;20051;-78
2022/08/06 10:13:38;;;;;;;4.38;0.70;;;;;;;24.05;33.33;102918.06;4803735;29;20047;-78
2022/08/06 10:16:26;;;;;;;1.52;0.60;;;;;;;24.11;32.59;102918.88;4786010;29;20063;-78
2022/08/06 10:18:55;;;;;;;2.78;0.68;;;;;;;24.40;32.19;102917.88;4803677;29;20055;-78
2022/08/06 10:21:29;;;;;;;0.40;0.40;;;;;;;24.64;31.66;102922.25;4788659;29;20058;-79
2022/08/06 10:24:10;;;;;;;0.68;0.50;;;;;;;24.71;32.63;102913.63;4803994;29;20145;-78
2022/08/06 10:26:38;;;;;;;0.98;0.70;;;;;;;24.65;32.59;102919.03;4802520;29;20510;-78
2022/08/06 10:29:11;;;;;;;0.45;0.45;;;;;;;24.61;31.92;102921.22;4803854;29;20516;-77
2022/08/06 10:31:40;;;;;;;0.95;0.57;;;;;;;24.54;32.54;102924.41;4786786;29;20552;-76
2022/08/06 10:34:19;;;;;;;0.70;0.70;;;;;;;24.42;33.51;102917.38;4787717;29;20050;-76
2022/08/06 10:36:59;;;;;;;1.08;0.57;;;;;;;24.56;32.65;102916.50;4804003;29;20055;-77
2022/08/06 10:39:27;;;;;;;0.80;0.60;;;;;;;24.67;31.87;102905.69;4803503;29;20490;-78
2022/08/06 10:42:15;;;;;;;1.77;0.65;;;;;;;25.04;31.67;102908.34;4802235;29;20109;-77
2022/08/06 10:44:49;;;;;;;0.60;0.60;;;;;;;25.17;31.60;102911.38;4803393;29;20051;-75
2022/08/06 10:47:17;;;;;;;54.47;48.65;;;;;;;25.43;31.15;102919.38;4802122;29;20058;-76
2022/08/06 10:50:05;;;;;;;3.20;1.52;;;;;;;25.46;30.13;102914.94;4804232;29;20490;-76
2022/08/06 10:52:53;;;;;;;1.00;0.70;;;;;;;25.52;29.06;102913.72;4806484;29;20213;-77
2022/08/06 10:55:22;;;;;;;0.50;0.47;;;;;;;25.55;29.16;102901.81;4806586;29;20055;-76
2022/08/06 10:57:49;;;;;;;0.50;0.50;;;;;;;25.46;28.05;102914.94;4806550;29;20048;-77
2022/08/06 11:00:17;;;;;;;0.60;0.60;;;;;;;25.37;30.34;102907.72;4805019;29;20050;-77
2022/08/06 11:03:22;;;;;;;0.90;0.50;;;;;;;25.28;31.15;102910.66;4806680;29;20449;-77
2022/08/06 11:06:00;;;;;;;0.60;0.60;;;;;;;24.99;31.08;102906.34;4805352;29;20095;-76
2022/08/06 11:08:56;;;;;;;0.60;0.60;;;;;;;25.00;31.56;102899.66;4789702;29;20060;-76
2022/08/06 11:12:07;;;;;;;0.90;0.70;;;;;;;25.32;30.06;102913.88;4790660;29;20051;-75
2022/08/06 11:14:41;;;;;;;0.80;0.80;;;;;;;25.57;30.65;102914.97;4785203;29;20398;-76
2022/08/06 11:17:07;;;;;;;1.25;0.65;;;;;;;25.52;30.60;102899.34;4785497;29;20058;-77
2022/08/06 11:19:54;;;;;;;1.17;0.77;;;;;;;25.36;31.07;102908.94;4785617;29;20064;-76
2022/08/06 11:22:36;;;;;;;0.75;0.75;;;;;;;25.36;29.91;102905.47;4786165;29;20060;-75
2022/08/06 11:25:08;;;;;;;0.50;0.50;;;;;;;25.33;29.07;102898.28;4785699;29;20619;-75
2022/08/06 11:28:01;;;;;;;0.60;0.60;;;;;;;25.42;28.68;102892.59;4770572;29;20552;-76
2022/08/06 11:30:44;;;;;;;1.05;0.80;;;;;;;25.55;29.35;102901.06;4785860;29;20609;-77
2022/08/06 11:33:19;;;;;;;0.85;0.80;;;;;;;25.50;29.19;102894.38;4785511;29;20143;-76
2022/08/06 11:35:50;;;;;;;0.75;0.70;;;;;;;25.47;29.65;102894.59;4786119;29;20104;-77
2022/08/06 11:38:48;;;;;;;0.75;0.60;;;;;;;25.65;29.99;102888.69;4785786;29;20188;-76
2022/08/06 11:41:22;;;;;;;0.70;0.70;;;;;;;25.76;29.11;102877.81;4785973;29;20066;-76
2022/08/06 11:44:09;;;;;;;0.98;0.70;;;;;;;26.02;28.24;102877.53;4785210;29;20189;-76
2022/08/06 11:46:40;;;;;;;0.75;0.70;;;;;;;25.98;29.58;102884.50;4805416;29;20067;-76
2022/08/06 11:49:20;;;;;;;3.13;0.70;;;;;;;25.67;29.13;102886.22;4806243;29;20055;-76
2022/08/06 11:51:58;;;;;;;1.92;0.90;;;;;;;24.93;30.58;102891.94;4790225;29;20559;-74
2022/08/06 11:54:59;;;;;;;0.80;0.80;;;;;;;24.64;31.27;102884.88;4805936;29;20134;-75
2022/08/06 11:57:27;;;;;;;1.77;0.77;;;;;;;24.49;31.49;102892.44;4805401;29;20492;-75
2022/08/06 12:00:16;;;;;;;0.85;0.85;;;;;;;24.83;32.13;102883.22;4805528;29;20055;-76
2022/08/06 12:02:46;;;;;;;1.65;0.88;;;;;;;25.16;32.18;102879.91;4805559;29;20520;-76
2022/08/06 12:05:18;;;;;;;1.48;0.70;;;;;;;25.24;31.34;102888.34;4806251;29;20047;-76
2022/08/06 12:08:06;;;;;;;3.20;0.60;;;;;;;25.12;31.11;102886.84;4804122;29;20621;-75
2022/08/06 12:10:35;;;;;;;1.20;0.85;;;;;;;25.19;31.41;102878.19;4805437;29;20501;-75
2022/08/06 12:13:39;;;;;;;0.90;0.75;;;;;;;25.07;32.81;102888.31;4805423;29;20051;-75
2022/08/06 12:16:30;;;;;;;1.88;0.82;;;;;;;24.84;34.45;102878.50;4805290;29;20597;-77
2022/08/06 12:18:57;;;;;;;1.10;0.80;;;;;;;24.62;34.62;102884.59;4805778;29;20051;-76